SBOSBO BLR / VOBL
Speedbird OnlineSpeedbird Online BLR / VOBL

Kempegowda International Airport
12:01 24°C

Location Bangalore, India
Latitude: 13.1979
Longitude: 77.706299
Web Airport Website | Wikipedia
Altitude 914 Meter / 3000 Feet
Distance 8,006 KM / 4,975 Miles
from London.
Time Zone UTC +5.5 hours (Asia/Calcutta)
Codes IATA: BLR
ICAO: VOBL
Currency £1 equals INR 92.44
Runways
RunwayLength (m)Surface
09L4000Asphalt
09R4000Asphalt
27L4000Asphalt
27R4000Asphalt
Radio
TypeDescriptionFrequency
APP121.25
ATIS128.675
DELIVERY121.82
SMC121.65
TOWER124.35
Live ATC
METAR VOBL 060600Z 25011KT 6000 SCT012 SCT018 24/21 Q1013 NOSIG
TAF TAF VOBL 060500Z 0606/0712 27010KT 6000 SCT012 SCT080 TEMPO 0609/0615 3000 RA DZ SCT008 SCT012 FEW025CB BKN080 TEMPO 0622/0703 3000 DZ BR SCT008 SCT012 BKN080 TEMPO 0709/0712 3000 RA DZ SCT008 SCT012 FEW025CB BKN080
Weather As Of 06 Oct 2022 12:01
Description Scattered clouds
Wind 20 km/h from West (250°)
Cloud Cover 40%
Precipitation Rain: none, Snow: none
Sunrise 06:08
Sunset 18:06
Lounges BLR International Lounge TEMPORARILY CLOSED , International Terminal
The Bangalore International Lounge, International Terminal
Rotations During the last 90 days there were
67 flights from LHR
67 flights to LHR


© 2017-2022 Speedbird Online